Time;durP1;ratioP1;P1;durP2;ratioP2;P2;SDS_P1;SDS_P2;PMS_P1;PMS_P2;Temp;Humidity;BMP_temperature;BMP_pressure;BME280_temperature;BME280_humidity;BME280_pressure;Samples;Min_cycle;Max_cycle;Signal;HPM_P1;HPM_P2
2021/03/19 00:00:50;;;;;;;4.43;2.30;;;2.80;99.90;;;;;;5013015;28;20489;-78
2021/03/19 00:03:19;;;;;;;3.67;2.63;;;2.70;99.90;;;;;;5001408;28;20553;-79
2021/03/19 00:05:48;;;;;;;4.07;2.30;;;2.60;99.90;;;;;;4993234;28;20475;-78
2021/03/19 00:08:17;;;;;;;3.37;2.63;;;2.60;99.90;;;;;;4993863;28;20485;-78
2021/03/19 00:10:45;;;;;;;4.33;2.60;;;2.70;99.90;;;;;;4993343;28;20520;-78
2021/03/19 00:13:12;;;;;;;4.63;2.70;;;2.50;99.90;;;;;;4994447;28;20477;-78
2021/03/19 00:15:40;;;;;;;3.60;2.90;;;2.60;99.90;;;;;;4993575;28;20585;-80
2021/03/19 00:18:08;;;;;;;4.23;2.50;;;2.70;99.90;;;;;;4998471;28;20477;-78
2021/03/19 00:20:39;;;;;;;4.33;2.30;;;2.40;99.90;;;;;;5006316;28;20481;-78
2021/03/19 00:23:08;;;;;;;3.30;2.80;;;2.50;99.90;;;;;;5002801;28;20469;-78
2021/03/19 00:25:38;;;;;;;4.63;2.70;;;2.50;99.90;;;;;;5012912;28;20977;-78
2021/03/19 00:28:07;;;;;;;3.23;2.23;;;2.50;99.90;;;;;;5007188;28;20980;-79
2021/03/19 00:30:35;;;;;;;3.20;2.30;;;2.40;99.90;;;;;;5012357;28;20485;-78
2021/03/19 00:33:03;;;;;;;4.30;2.50;;;2.40;99.90;;;;;;5013465;28;20528;-78
2021/03/19 00:35:31;;;;;;;3.37;2.50;;;2.50;99.90;;;;;;5010819;28;20465;-78
2021/03/19 00:37:59;;;;;;;4.27;2.70;;;2.50;99.90;;;;;;4995407;28;20473;-78
2021/03/19 00:40:28;;;;;;;2.73;2.20;;;2.30;99.90;;;;;;4998180;28;20488;-80
2021/03/19 00:42:57;;;;;;;4.10;2.60;;;2.00;99.90;;;;;;4993371;28;20479;-78
2021/03/19 00:45:27;;;;;;;4.57;2.70;;;1.90;99.90;;;;;;5005863;28;20583;-79
2021/03/19 00:47:55;;;;;;;3.47;2.70;;;2.20;99.90;;;;;;5009359;28;21145;-78
2021/03/19 00:50:28;;;;;;;3.63;2.40;;;2.20;99.90;;;;;;5000367;28;20485;-78
2021/03/19 00:52:55;;;;;;;2.77;2.50;;;2.30;99.90;;;;;;4998132;28;20482;-79
2021/03/19 00:55:23;;;;;;;3.73;2.40;;;2.30;99.90;;;;;;4993310;28;20520;-79
2021/03/19 00:57:51;;;;;;;3.37;2.10;;;2.40;99.90;;;;;;4992546;28;20481;-80
2021/03/19 01:00:22;;;;;;;2.47;2.00;;;2.20;99.90;;;;;;4992338;28;20705;-79
2021/03/19 01:02:50;;;;;;;2.57;1.83;;;1.90;99.90;;;;;;4992944;28;20572;-78
2021/03/19 01:05:20;;;;;;;2.50;2.10;;;1.70;99.90;;;;;;5006762;28;21071;-78
2021/03/19 01:07:50;;;;;;;3.27;2.33;;;1.80;99.90;;;;;;5027529;28;20481;-80
2021/03/19 01:10:25;;;;;;;5.40;2.50;;;1.90;99.90;;;;;;5011707;28;20488;-80
2021/03/19 01:12:53;;;;;;;4.30;2.60;;;2.10;99.90;;;;;;5010811;28;20536;-80
2021/03/19 01:15:21;;;;;;;3.67;2.83;;;2.10;99.90;;;;;;5003544;28;20482;-80
2021/03/19 01:17:49;;;;;;;3.80;2.53;;;2.30;99.90;;;;;;5009772;28;20515;-79
2021/03/19 01:20:17;;;;;;;4.30;2.87;;;2.10;99.90;;;;;;5009776;28;20519;-79
2021/03/19 01:22:45;;;;;;;4.03;2.60;;;1.90;99.90;;;;;;4999719;28;20474;-79
2021/03/19 01:25:16;;;;;;;2.87;2.40;;;2.00;99.90;;;;;;5008591;28;20488;-81
2021/03/19 01:27:44;;;;;;;3.30;2.60;;;1.90;99.90;;;;;;5012214;28;20480;-79
2021/03/19 01:30:16;;;;;;;3.47;2.57;;;1.90;99.90;;;;;;5011168;28;20504;-79
2021/03/19 01:32:45;;;;;;;4.07;2.70;;;2.10;99.90;;;;;;5011400;28;21051;-79
2021/03/19 01:35:14;;;;;;;3.70;2.40;;;2.10;99.90;;;;;;5011641;28;20499;-80
2021/03/19 01:37:42;;;;;;;3.63;2.43;;;2.00;99.90;;;;;;4992685;28;20476;-79
2021/03/19 01:40:13;;;;;;;3.47;2.40;;;2.20;99.90;;;;;;5007868;28;20474;-79
2021/03/19 01:42:41;;;;;;;4.53;2.67;;;2.20;99.90;;;;;;5021651;28;20560;-79
2021/03/19 01:45:53;;;;;;;5.77;2.43;;;2.30;99.90;;;;;;5002943;28;20504;-79
2021/03/19 01:49:16;;;;;;;2.60;2.40;;;2.20;99.90;;;;;;4999363;28;20488;-79
2021/03/19 01:52:40;;;;;;;3.77;2.40;;;2.10;99.90;;;;;;4991717;28;21075;-79
2021/03/19 01:56:03;;;;;;;3.93;2.40;;;1.70;99.90;;;;;;4989749;28;21024;-79
2021/03/19 01:59:38;;;;;;;2.87;2.47;;;1.40;99.90;;;;;;5005093;28;20500;-79
2021/03/19 02:03:01;;;;;;;2.97;2.57;;;1.60;99.90;;;;;;4950098;28;20532;-79
2021/03/19 02:06:25;;;;;;;2.53;2.20;;;1.60;99.90;;;;;;4991299;28;20490;-79
2021/03/19 02:09:50;;;;;;;3.23;2.40;;;1.70;99.90;;;;;;4991224;28;20532;-79
2021/03/19 02:13:14;;;;;;;4.77;2.50;;;1.90;99.90;;;;;;4991687;28;20473;-80
2021/03/19 02:16:37;;;;;;;2.50;2.30;;;1.90;99.90;;;;;;5000294;28;20492;-79
2021/03/19 02:20:02;;;;;;;3.00;2.30;;;2.10;99.90;;;;;;5001359;28;20539;-79
2021/03/19 02:23:25;;;;;;;3.30;2.40;;;2.00;99.90;;;;;;5006351;28;20564;-79
2021/03/19 02:26:49;;;;;;;3.33;2.67;;;2.00;99.90;;;;;;5006191;28;20496;-80
2021/03/19 02:30:14;;;;;;;3.57;2.60;;;1.90;99.90;;;;;;4995309;28;20516;-79
2021/03/19 02:32:43;;;;;;;3.83;2.80;;;1.90;99.90;;;;;;4991399;28;20469;-78
2021/03/19 02:35:16;;;;;;;6.17;2.13;;;1.90;99.90;;;;;;5009826;28;20862;-79
2021/03/19 02:37:44;;;;;;;3.77;2.40;;;1.60;99.90;;;;;;5011280;28;20468;-79
2021/03/19 02:40:15;;;;;;;3.03;2.70;;;1.60;99.90;;;;;;5002260;28;20556;-79
2021/03/19 02:42:43;;;;;;;3.17;2.30;;;1.70;99.90;;;;;;5005278;28;20508;-79
2021/03/19 02:45:18;;;;;;;3.70;2.80;;;1.70;99.90;;;;;;5004378;28;20504;-79
2021/03/19 02:47:47;;;;;;;2.77;2.23;;;1.80;99.90;;;;;;5004880;28;20468;-80
2021/03/19 02:50:16;;;;;;;4.37;2.60;;;1.80;99.90;;;;;;5010550;28;20476;-80
2021/03/19 02:52:44;;;;;;;3.23;2.60;;;1.70;99.90;;;;;;5010628;28;20464;-79
2021/03/19 02:55:17;;;;;;;4.57;2.90;;;1.80;99.90;;;;;;5010839;28;20489;-78
2021/03/19 02:57:45;;;;;;;3.90;2.90;;;1.70;99.90;;;;;;5010552;28;21176;-79
2021/03/19 03:00:20;;;;;;;5.30;2.70;;;1.70;99.90;;;;;;5023353;28;20477;-79
2021/03/19 03:02:49;;;;;;;5.83;2.23;;;1.60;99.90;;;;;;5010548;28;20522;-80
2021/03/19 03:05:18;;;;;;;4.37;2.80;;;1.60;99.90;;;;;;5010545;28;20501;-79
2021/03/19 03:07:46;;;;;;;3.60;2.37;;;1.60;99.90;;;;;;5009682;28;20832;-78
2021/03/19 03:10:20;;;;;;;3.23;2.63;;;1.60;99.90;;;;;;5023191;28;20874;-79
2021/03/19 03:12:47;;;;;;;3.40;2.47;;;1.70;99.90;;;;;;5006611;28;20484;-79
2021/03/19 03:15:18;;;;;;;4.53;2.90;;;1.70;99.90;;;;;;4999155;28;20477;-80
2021/03/19 03:17:46;;;;;;;3.20;2.40;;;1.70;99.90;;;;;;5005213;28;20901;-79
2021/03/19 03:20:24;;;;;;;3.13;2.80;;;1.70;99.90;;;;;;4994265;28;20481;-78
2021/03/19 03:22:52;;;;;;;4.30;2.90;;;1.60;99.90;;;;;;4991671;28;20496;-78
2021/03/19 03:25:21;;;;;;;2.83;2.33;;;1.70;99.90;;;;;;4991136;28;20481;-79
2021/03/19 03:27:51;;;;;;;4.73;2.87;;;1.70;99.90;;;;;;4990500;28;20481;-81
2021/03/19 03:30:23;;;;;;;3.20;2.90;;;1.70;99.90;;;;;;4990467;28;20489;-79
2021/03/19 03:32:52;;;;;;;3.50;2.87;;;1.70;99.90;;;;;;5009546;28;20526;-79
2021/03/19 03:35:24;;;;;;;3.30;3.00;;;1.70;99.90;;;;;;5007814;28;20480;-79
2021/03/19 03:37:59;;;;;;;3.47;2.67;;;1.70;99.90;;;;;;5008943;28;20476;-79
2021/03/19 03:40:32;;;;;;;4.60;2.93;;;1.50;99.90;;;;;;5006928;28;20491;-79
2021/03/19 03:43:01;;;;;;;3.80;3.37;;;1.60;99.90;;;;;;5000628;28;20504;-80
2021/03/19 03:45:28;;;;;;;4.97;3.00;;;1.60;99.90;;;;;;5002466;28;20828;-78
2021/03/19 03:47:56;;;;;;;3.47;2.80;;;1.60;99.90;;;;;;5025247;28;20829;-78
2021/03/19 03:50:29;;;;;;;4.23;3.73;;;1.60;99.90;;;;;;5025030;28;20484;-78
2021/03/19 03:53:07;;;;;;;4.17;3.13;;;1.70;99.90;;;;;;5009363;28;20483;-78
2021/03/19 03:55:36;;;;;;;4.20;3.20;;;1.60;99.90;;;;;;5009830;28;20508;-78
2021/03/19 03:58:04;;;;;;;4.20;3.73;;;1.60;99.90;;;;;;5009402;28;21103;-79
2021/03/19 04:00:33;;;;;;;4.53;3.43;;;1.70;99.90;;;;;;5024653;28;20546;-80
2021/03/19 04:03:01;;;;;;;4.67;3.43;;;1.90;99.90;;;;;;5004006;28;20477;-79
2021/03/19 04:05:33;;;;;;;4.73;3.80;;;1.90;99.90;;;;;;5008012;28;21118;-78
2021/03/19 04:08:01;;;;;;;5.37;3.57;;;1.80;99.90;;;;;;5009759;28;20476;-79
2021/03/19 04:10:28;;;;;;;4.23;3.83;;;1.80;99.90;;;;;;4992558;28;20480;-78
2021/03/19 04:12:58;;;;;;;4.87;3.80;;;1.70;99.90;;;;;;5008046;28;20472;-79
2021/03/19 04:15:29;;;;;;;4.13;3.43;;;1.60;99.90;;;;;;4999121;28;20794;-79
2021/03/19 04:17:59;;;;;;;4.50;3.40;;;1.60;99.90;;;;;;4989991;28;20485;-79
2021/03/19 04:20:29;;;;;;;5.00;3.50;;;1.60;99.90;;;;;;5013998;28;20472;-78
2021/03/19 04:22:57;;;;;;;4.93;3.80;;;1.60;99.90;;;;;;5013449;28;20480;-78
2021/03/19 04:25:25;;;;;;;5.47;4.13;;;1.60;99.90;;;;;;5009727;28;20482;-79
2021/03/19 04:27:56;;;;;;;4.03;3.50;;;1.60;99.90;;;;;;5013459;28;20492;-78
2021/03/19 04:30:28;;;;;;;4.23;3.63;;;1.60;99.90;;;;;;5026812;28;20504;-78
2021/03/19 04:32:56;;;;;;;7.73;4.70;;;1.60;99.90;;;;;;5013504;28;20535;-78
2021/03/19 04:35:27;;;;;;;4.23;3.80;;;1.60;99.90;;;;;;5009156;28;20582;-80
2021/03/19 04:37:59;;;;;;;4.63;3.87;;;1.60;99.90;;;;;;5002446;28;20473;-78
2021/03/19 04:40:27;;;;;;;4.77;4.07;;;1.60;99.90;;;;;;5008290;28;20520;-78
2021/03/19 04:42:56;;;;;;;5.43;4.57;;;1.70;99.90;;;;;;5008897;28;20875;-78
2021/03/19 04:45:24;;;;;;;6.27;5.57;;;1.70;99.90;;;;;;5013369;28;20538;-78
2021/03/19 04:47:53;;;;;;;6.03;4.83;;;1.70;99.90;;;;;;5012889;28;20485;-79
2021/03/19 04:50:22;;;;;;;7.10;4.90;;;1.70;99.90;;;;;;5012850;28;20508;-79
2021/03/19 04:52:50;;;;;;;6.73;5.23;;;1.70;99.90;;;;;;5027717;28;20511;-78
2021/03/19 04:55:19;;;;;;;6.47;4.77;;;1.70;99.90;;;;;;5012043;28;20480;-78
2021/03/19 04:57:46;;;;;;;5.60;5.10;;;1.70;99.90;;;;;;5012791;28;21316;-78
2021/03/19 05:00:16;;;;;;;4.93;4.43;;;1.80;99.90;;;;;;5011503;28;20539;-78
2021/03/19 05:02:46;;;;;;;7.57;4.77;;;1.70;99.90;;;;;;5012873;28;20936;-78
2021/03/19 05:05:18;;;;;;;5.90;4.60;;;1.70;99.90;;;;;;5003382;28;20488;-78
2021/03/19 05:07:46;;;;;;;6.17;4.70;;;1.70;99.90;;;;;;5003041;28;21180;-80
2021/03/19 05:10:16;;;;;;;6.07;4.90;;;1.70;99.90;;;;;;5005967;28;20563;-80
2021/03/19 05:12:44;;;;;;;6.53;4.20;;;1.70;99.90;;;;;;5002936;28;20484;-78
2021/03/19 05:15:13;;;;;;;4.97;4.03;;;1.60;99.90;;;;;;5012409;28;20535;-80
2021/03/19 05:17:41;;;;;;;5.77;4.90;;;1.40;99.90;;;;;;5012868;28;20511;-79
2021/03/19 05:20:12;;;;;;;5.80;5.20;;;1.20;99.90;;;;;;5012023;28;20560;-79
2021/03/19 05:22:40;;;;;;;6.80;4.83;;;1.20;99.90;;;;;;5012355;28;20519;-78
2021/03/19 05:25:12;;;;;;;6.27;4.90;;;1.20;99.90;;;;;;5011132;28;20480;-79
2021/03/19 05:27:41;;;;;;;6.17;5.07;;;1.20;99.90;;;;;;4997256;28;21004;-78
2021/03/19 05:30:13;;;;;;;5.80;5.20;;;1.40;99.90;;;;;;4996758;28;20497;-78
2021/03/19 05:32:41;;;;;;;6.83;5.63;;;1.40;99.90;;;;;;5009699;28;20976;-80
2021/03/19 05:35:12;;;;;;;7.50;5.63;;;1.40;99.90;;;;;;5010203;28;20504;-79
2021/03/19 05:37:40;;;;;;;7.07;5.57;;;1.40;99.90;;;;;;5001096;28;20509;-79
2021/03/19 05:40:14;;;;;;;5.90;5.33;;;1.40;99.90;;;;;;5000101;28;20481;-79
2021/03/19 05:42:43;;;;;;;6.80;6.03;;;1.30;99.90;;;;;;5011118;28;20562;-79
2021/03/19 05:45:25;;;;;;;6.50;5.80;;;1.10;99.90;;;;;;5004275;28;20492;-79
2021/03/19 05:47:54;;;;;;;6.37;5.10;;;0.90;99.90;;;;;;4995490;28;20485;-78
2021/03/19 05:50:29;;;;;;;5.30;4.80;;;0.80;99.90;;;;;;4992338;28;20469;-78
2021/03/19 05:53:10;;;;;;;8.17;7.00;;;1.00;99.90;;;;;;4992829;28;20563;-78
2021/03/19 05:55:39;;;;;;;9.07;6.07;;;1.30;99.90;;;;;;5010349;28;20487;-79
2021/03/19 05:58:14;;;;;;;15.90;7.37;;;1.30;99.90;;;;;;5011624;28;20522;-78
2021/03/19 06:00:43;;;;;;;12.40;8.70;;;1.50;99.90;;;;;;4991916;28;20513;-78
2021/03/19 06:03:12;;;;;;;10.97;8.67;;;1.80;99.90;;;;;;5003636;28;20477;-78
2021/03/19 06:05:58;;;;;;;10.30;8.93;;;1.70;99.90;;;;;;4996663;28;20507;-79
2021/03/19 06:08:35;;;;;;;13.80;7.23;;;1.70;99.90;;;;;;5002979;28;20556;-78
2021/03/19 06:11:19;;;;;;;13.27;9.53;;;1.70;99.90;;;;;;5002416;28;20472;-79
2021/03/19 06:14:01;;;;;;;12.63;9.57;;;1.90;99.90;;;;;;4992294;28;20984;-79
2021/03/19 06:16:36;;;;;;;12.27;8.83;;;1.80;99.90;;;;;;4992322;28;20512;-79
2021/03/19 06:19:24;;;;;;;11.50;7.60;;;1.40;99.90;;;;;;4994253;28;20472;-79
2021/03/19 06:22:21;;;;;;;7.43;6.07;;;1.00;99.90;;;;;;4999046;28;20477;-80
2021/03/19 06:25:16;;;;;;;7.17;5.33;;;0.80;99.90;;;;;;5004265;28;20892;-78
2021/03/19 06:27:51;;;;;;;8.70;6.30;;;0.70;99.90;;;;;;5002264;28;20496;-78
2021/03/19 06:30:28;;;;;;;6.63;5.83;;;0.80;99.90;;;;;;5006003;28;20537;-79
2021/03/19 06:33:26;;;;;;;6.60;5.87;;;0.80;99.90;;;;;;5005798;28;20877;-79
2021/03/19 06:36:18;;;;;;;7.07;5.40;;;0.90;99.90;;;;;;4999318;28;20492;-80
2021/03/19 06:38:48;;;;;;;6.37;5.47;;;1.00;99.90;;;;;;5004492;28;20543;-79
2021/03/19 06:41:29;;;;;;;9.30;6.03;;;1.00;99.90;;;;;;5009951;28;20833;-78
2021/03/19 06:44:19;;;;;;;6.73;5.50;;;1.00;99.90;;;;;;5009520;28;20460;-80
2021/03/19 06:46:52;;;;;;;6.10;5.40;;;1.00;99.90;;;;;;5009404;28;20861;-78
2021/03/19 06:49:23;;;;;;;8.43;5.70;;;1.10;99.90;;;;;;5005596;28;20480;-78
2021/03/19 06:51:53;;;;;;;7.83;6.03;;;1.10;99.90;;;;;;4994311;28;20480;-78
2021/03/19 06:54:23;;;;;;;8.60;6.67;;;1.20;99.90;;;;;;5008078;28;20545;-78
2021/03/19 06:57:08;;;;;;;8.20;6.60;;;1.40;99.90;;;;;;5003876;28;20480;-79
2021/03/19 06:59:45;;;;;;;7.70;6.30;;;1.40;99.90;;;;;;4996554;28;20485;-79
2021/03/19 07:02:58;;;;;;;9.57;6.07;;;1.40;99.90;;;;;;5020960;28;20491;-78
2021/03/19 07:05:59;;;;;;;8.07;6.30;;;1.40;99.90;;;;;;4996528;28;20476;-78
2021/03/19 07:08:39;;;;;;;10.07;6.80;;;1.40;99.90;;;;;;4979060;28;20512;-80
2021/03/19 07:11:48;;;;;;;7.33;6.10;;;1.60;99.90;;;;;;5022784;28;20588;-78
2021/03/19 07:15:03;;;;;;;7.17;5.73;;;1.80;99.90;;;;;;5002642;28;20480;-79
2021/03/19 07:17:52;;;;;;;6.90;6.20;;;1.90;99.90;;;;;;4993251;28;20845;-79
2021/03/19 07:21:28;;;;;;;7.00;5.97;;;1.90;99.90;;;;;;5004372;28;20480;-78
2021/03/19 07:24:10;;;;;;;7.73;6.43;;;1.90;99.90;;;;;;4959651;28;20486;-79
2021/03/19 07:26:44;;;;;;;10.07;7.17;;;1.90;99.90;;;;;;5002040;28;20544;-79
2021/03/19 07:29:46;;;;;;;9.07;7.93;;;2.00;99.90;;;;;;5001171;28;20496;-79
2021/03/19 07:32:38;;;;;;;9.67;7.10;;;2.00;99.90;;;;;;5001906;28;20824;-78
2021/03/19 07:35:39;;;;;;;9.50;7.73;;;2.10;99.90;;;;;;5000761;28;20527;-78
2021/03/19 07:38:49;;;;;;;10.77;7.60;;;2.20;99.90;;;;;;5005135;28;20476;-78
2021/03/19 07:41:35;;;;;;;9.67;8.40;;;2.50;99.90;;;;;;5006360;28;20480;-78
2021/03/19 07:44:26;;;;;;;14.47;8.83;;;2.70;99.90;;;;;;5009028;28;20483;-79
2021/03/19 07:47:14;;;;;;;11.93;8.77;;;2.80;99.90;;;;;;5008303;28;20554;-78
2021/03/19 07:50:08;;;;;;;10.67;8.70;;;3.00;99.90;;;;;;5007805;28;20473;-80
2021/03/19 07:53:26;;;;;;;11.27;9.17;;;3.30;99.90;;;;;;5020487;28;20507;-78
2021/03/19 07:56:20;;;;;;;10.57;8.57;;;3.70;99.90;;;;;;4996433;28;21446;-79
2021/03/19 07:58:55;;;;;;;14.40;9.13;;;3.90;99.90;;;;;;5004328;28;20484;-79
2021/03/19 08:01:34;;;;;;;11.73;9.50;;;4.30;99.90;;;;;;5003799;28;20903;-79
2021/03/19 08:04:15;;;;;;;12.93;9.40;;;4.50;99.90;;;;;;4996151;28;20858;-80
2021/03/19 08:06:55;;;;;;;12.60;9.03;;;4.60;99.90;;;;;;5002737;28;20482;-79
2021/03/19 08:09:41;;;;;;;13.87;9.23;;;4.60;99.90;;;;;;5015601;28;20475;-79
2021/03/19 08:12:16;;;;;;;13.10;9.53;;;4.50;99.90;;;;;;5003665;28;21160;-79
2021/03/19 08:14:58;;;;;;;12.53;9.50;;;4.60;99.90;;;;;;5007277;28;20479;-79
2021/03/19 08:17:41;;;;;;;12.57;9.17;;;4.50;99.90;;;;;;4993257;28;20476;-78
2021/03/19 08:20:27;;;;;;;13.57;9.70;;;4.50;99.90;;;;;;4998376;28;20520;-78
2021/03/19 08:23:01;;;;;;;12.70;9.23;;;4.90;99.90;;;;;;5002801;28;21268;-79
2021/03/19 08:25:35;;;;;;;12.50;8.57;;;5.20;99.90;;;;;;5000478;28;20876;-79
2021/03/19 08:28:18;;;;;;;11.63;8.37;;;5.30;99.90;;;;;;5006458;28;20478;-79
2021/03/19 08:30:54;;;;;;;11.30;8.57;;;5.30;99.90;;;;;;5015584;28;20862;-79
2021/03/19 08:33:42;;;;;;;13.40;8.83;;;5.30;99.90;;;;;;4992464;28;20486;-79
2021/03/19 08:36:21;;;;;;;12.50;8.03;;;5.60;99.90;;;;;;4994466;28;20735;-79
2021/03/19 08:38:54;;;;;;;14.67;9.00;;;5.60;99.90;;;;;;4991828;28;20485;-79
2021/03/19 08:41:27;;;;;;;11.03;7.70;;;5.70;99.90;;;;;;4996587;28;20899;-79
2021/03/19 08:44:00;;;;;;;12.20;8.37;;;5.60;99.90;;;;;;4996378;28;20839;-79
2021/03/19 08:46:44;;;;;;;13.50;8.00;;;5.40;99.90;;;;;;4998870;28;20956;-79
2021/03/19 08:49:15;;;;;;;12.47;8.00;;;5.40;99.90;;;;;;5000952;28;20464;-80
2021/03/19 08:51:45;;;;;;;10.20;7.87;;;5.60;99.90;;;;;;4996368;28;20491;-79
2021/03/19 08:54:27;;;;;;;11.60;7.70;;;5.60;99.90;;;;;;5015870;28;20573;-80
2021/03/19 08:57:33;;;;;;;9.70;7.50;;;5.70;99.90;;;;;;4998571;28;20478;-79
2021/03/19 09:00:08;;;;;;;9.90;7.00;;;5.60;99.90;;;;;;5011432;28;20477;-80
2021/03/19 09:02:56;;;;;;;10.97;6.87;;;5.50;99.90;;;;;;4999083;28;20552;-80
2021/03/19 09:05:32;;;;;;;10.63;7.63;;;5.50;99.90;;;;;;4996024;28;21003;-80
2021/03/19 09:08:29;;;;;;;9.97;7.67;;;5.60;99.90;;;;;;5002417;28;20475;-80
2021/03/19 09:11:11;;;;;;;10.63;8.07;;;5.80;99.90;;;;;;4998994;28;20475;-79
2021/03/19 09:14:31;;;;;;;10.20;7.30;;;6.10;99.90;;;;;;5001532;28;20470;-79
2021/03/19 09:16:59;;;;;;;12.50;6.93;;;6.20;99.90;;;;;;5008344;28;20491;-80
2021/03/19 09:19:58;;;;;;;10.80;6.97;;;6.40;99.90;;;;;;5016402;28;20486;-81
2021/03/19 09:22:39;;;;;;;9.53;6.37;;;6.50;99.90;;;;;;5003884;28;20475;-79
2021/03/19 09:25:48;;;;;;;9.03;6.17;;;6.80;99.90;;;;;;5009698;28;20486;-80
2021/03/19 09:28:57;;;;;;;8.33;6.07;;;6.70;99.90;;;;;;5000388;28;20988;-80
2021/03/19 09:31:40;;;;;;;7.63;5.93;;;6.60;99.90;;;;;;4959234;28;20903;-79
2021/03/19 09:34:19;;;;;;;8.97;5.90;;;7.00;99.90;;;;;;5003853;28;20484;-80
2021/03/19 09:37:16;;;;;;;11.23;5.90;;;7.30;99.90;;;;;;5001662;28;20799;-79
2021/03/19 09:40:14;;;;;;;9.03;6.03;;;7.30;99.90;;;;;;4999866;28;20460;-80
2021/03/19 09:42:52;;;;;;;7.77;6.10;;;6.90;99.90;;;;;;4996695;28;20825;-80
2021/03/19 09:45:48;;;;;;;7.70;5.63;;;7.00;99.90;;;;;;5002705;28;20264;-80
2021/03/19 09:48:32;;;;;;;8.40;5.90;;;7.20;99.90;;;;;;5008775;28;20249;-78
2021/03/19 09:51:40;;;;;;;9.23;6.13;;;7.10;99.90;;;;;;5006818;28;20237;-79
2021/03/19 09:54:36;;;;;;;12.07;5.80;;;6.90;99.90;;;;;;5001365;28;20793;-79
2021/03/19 09:57:26;;;;;;;8.27;5.47;;;6.80;99.90;;;;;;4999891;28;20288;-79
2021/03/19 09:59:59;;;;;;;7.57;5.30;;;6.70;99.90;;;;;;4996669;28;20320;-79
2021/03/19 10:02:31;;;;;;;10.47;5.87;;;6.90;99.90;;;;;;5001659;28;20496;-79
2021/03/19 10:05:16;;;;;;;10.23;5.70;;;7.10;99.90;;;;;;4995169;28;20242;-79
2021/03/19 10:07:48;;;;;;;8.07;5.63;;;6.90;99.90;;;;;;4992453;28;21130;-79
2021/03/19 10:10:25;;;;;;;7.53;5.23;;;7.20;99.90;;;;;;5001629;28;20332;-79
2021/03/19 10:13:06;;;;;;;5.67;4.37;;;7.50;99.90;;;;;;5004927;28;20484;-79
2021/03/19 10:15:35;;;;;;;6.87;4.00;;;7.90;99.90;;;;;;4993627;28;20660;-79
2021/03/19 10:18:07;;;;;;;4.90;3.40;;;7.70;99.90;;;;;;5000364;28;20570;-79
2021/03/19 10:20:38;;;;;;;5.77;3.70;;;7.60;99.90;;;;;;5002276;28;20307;-79
2021/03/19 10:23:26;;;;;;;8.80;4.10;;;7.80;99.90;;;;;;4995782;28;20653;-79
2021/03/19 10:26:08;;;;;;;6.37;3.97;;;7.80;99.90;;;;;;5015875;28;20252;-79
2021/03/19 10:28:37;;;;;;;4.90;3.90;;;7.70;99.90;;;;;;5000985;28;20634;-79
2021/03/19 10:31:09;;;;;;;5.33;3.13;;;7.50;99.90;;;;;;4993873;28;20246;-79
2021/03/19 10:33:43;;;;;;;6.17;3.37;;;7.40;99.90;;;;;;5008674;28;20287;-79
2021/03/19 10:36:16;;;;;;;7.37;3.13;;;7.20;99.90;;;;;;4995762;28;20693;-80
2021/03/19 10:38:49;;;;;;;5.17;3.40;;;7.00;99.90;;;;;;4996718;28;20291;-79
2021/03/19 10:41:29;;;;;;;5.40;3.00;;;6.90;99.90;;;;;;5000747;28;20673;-79
2021/03/19 10:44:03;;;;;;;6.10;3.40;;;6.90;99.90;;;;;;5000180;28;20337;-80
2021/03/19 10:46:39;;;;;;;4.03;3.10;;;7.20;99.90;;;;;;5000993;28;20241;-80
2021/03/19 10:49:16;;;;;;;4.13;2.73;;;7.30;99.90;;;;;;4997623;28;20242;-80
2021/03/19 10:51:49;;;;;;;2.80;2.40;;;7.70;99.90;;;;;;5004884;28;20240;-80
2021/03/19 10:54:24;;;;;;;3.13;2.17;;;8.20;99.90;;;;;;4998044;28;20287;-79
2021/03/19 10:56:54;;;;;;;3.73;2.60;;;8.80;99.90;;;;;;4998412;28;20701;-80
2021/03/19 10:59:36;;;;;;;4.27;2.20;;;8.80;99.90;;;;;;4997171;28;20299;-80
2021/03/19 11:02:24;;;;;;;3.83;2.63;;;8.10;99.90;;;;;;5000608;28;20588;-80
2021/03/19 11:05:13;;;;;;;3.83;2.10;;;7.70;99.90;;;;;;5002215;28;20239;-80
2021/03/19 11:07:44;;;;;;;4.60;2.20;;;7.60;99.90;;;;;;5002906;28;20716;-80
2021/03/19 11:10:49;;;;;;;4.80;2.33;;;7.20;99.90;;;;;;4993167;28;20255;-80
2021/03/19 11:13:24;;;;;;;2.37;2.07;;;7.00;99.90;;;;;;4999903;28;20237;-81
2021/03/19 11:15:56;;;;;;;3.67;2.00;;;7.20;99.90;;;;;;5003541;28;20232;-80
2021/03/19 11:18:34;;;;;;;2.43;1.83;;;7.60;99.90;;;;;;4994506;28;20256;-80
2021/03/19 11:21:29;;;;;;;3.40;1.97;;;7.70;99.90;;;;;;5001441;28;20255;-78
2021/03/19 11:24:19;;;;;;;3.47;2.00;;;7.90;99.90;;;;;;4989005;28;20237;-78
2021/03/19 11:27:13;;;;;;;1.70;1.60;;;7.90;99.90;;;;;;4993465;28;20349;-79
2021/03/19 11:29:42;;;;;;;3.77;2.10;;;7.70;99.90;;;;;;5006822;28;20239;-81
2021/03/19 11:32:33;;;;;;;3.80;2.20;;;7.50;99.90;;;;;;5002611;28;20323;-82
2021/03/19 11:35:18;;;;;;;2.83;1.80;;;7.30;99.90;;;;;;5004299;28;20336;-81
2021/03/19 11:37:46;;;;;;;6.33;1.83;;;7.20;99.90;;;;;;5003101;28;20689;-82
2021/03/19 11:40:36;;;;;;;2.47;1.60;;;7.80;99.90;;;;;;5007088;28;20623;-82
2021/03/19 11:43:09;;;;;;;2.47;1.60;;;8.10;99.90;;;;;;4998629;28;20700;-82
2021/03/19 11:45:40;;;;;;;4.60;1.27;;;8.50;99.90;;;;;;5020284;28;20237;-82
2021/03/19 11:48:23;;;;;;;2.43;1.60;;;8.90;99.90;;;;;;5010878;28;20700;-82
2021/03/19 11:51:06;;;;;;;1.90;1.37;;;9.10;99.90;;;;;;5008500;28;20274;-83
2021/03/19 11:53:33;;;;;;;1.77;1.10;;;8.60;99.90;;;;;;5008342;28;20267;-83
2021/03/19 11:56:05;;;;;;;1.30;1.10;;;8.10;99.90;;;;;;5007322;28;20354;-82
2021/03/19 11:58:35;;;;;;;1.63;1.10;;;7.90;99.90;;;;;;5005167;28;20236;-82
2021/03/19 12:01:05;;;;;;;3.47;1.17;;;7.80;99.90;;;;;;5005107;28;20241;-82
2021/03/19 12:03:37;;;;;;;3.37;1.07;;;7.50;99.90;;;;;;5007699;28;20221;-82
2021/03/19 12:06:08;;;;;;;2.77;1.40;;;7.80;99.90;;;;;;5020266;28;20247;-82
2021/03/19 12:08:38;;;;;;;3.60;1.20;;;8.20;99.90;;;;;;5000399;28;20237;-81
2021/03/19 12:11:08;;;;;;;1.80;1.30;;;8.10;99.90;;;;;;5012147;28;20237;-83
2021/03/19 12:13:36;;;;;;;2.30;1.00;;;7.80;99.90;;;;;;5008686;28;20242;-82
2021/03/19 12:16:07;;;;;;;3.23;1.00;;;7.80;99.90;;;;;;5018136;28;20225;-81
2021/03/19 12:18:35;;;;;;;1.23;1.10;;;7.70;99.90;;;;;;5020489;28;20595;-82
2021/03/19 12:21:03;;;;;;;3.80;1.10;;;7.90;99.90;;;;;;5011983;28;20311;-82
2021/03/19 12:23:32;;;;;;;1.10;0.90;;;7.70;99.90;;;;;;5019087;28;20806;-81
2021/03/19 12:26:01;;;;;;;2.00;1.10;;;7.70;99.90;;;;;;5018730;28;20268;-81
2021/03/19 12:28:28;;;;;;;1.30;0.80;;;7.60;99.90;;;;;;5008209;28;20229;-83
2021/03/19 12:30:59;;;;;;;0.60;0.60;;;7.60;99.90;;;;;;5011499;28;20620;-82
2021/03/19 12:33:32;;;;;;;1.90;0.80;;;7.60;99.90;;;;;;5018342;28;20241;-82
2021/03/19 12:36:02;;;;;;;3.07;1.00;;;7.60;99.90;;;;;;4995766;28;20307;-80
2021/03/19 12:38:29;;;;;;;1.37;0.67;;;7.50;99.90;;;;;;4995587;28;20236;-83
2021/03/19 12:40:58;;;;;;;1.67;0.90;;;7.40;99.90;;;;;;5002557;28;20234;-84
2021/03/19 12:43:28;;;;;;;1.93;1.00;;;7.20;99.90;;;;;;5012839;28;20295;-83
2021/03/19 12:45:57;;;;;;;1.07;0.80;;;7.20;99.90;;;;;;5012851;28;20236;-84
2021/03/19 12:48:26;;;;;;;1.30;1.00;;;7.00;99.90;;;;;;5009451;28;20250;-84
2021/03/19 12:50:55;;;;;;;1.00;0.90;;;6.70;99.90;;;;;;5006210;28;20257;-84
2021/03/19 12:53:24;;;;;;;2.03;0.90;;;6.60;99.90;;;;;;5001879;28;20566;-82
2021/03/19 12:56:22;;;;;;;1.30;0.90;;;6.70;99.90;;;;;;4992515;28;20605;-84
2021/03/19 12:59:17;;;;;;;1.80;1.00;;;6.80;99.90;;;;;;4992723;28;20737;-83
2021/03/19 13:02:42;;;;;;;3.97;1.40;;;6.70;99.90;;;;;;5010276;28;20240;-83
2021/03/19 13:05:15;;;;;;;2.10;0.97;;;6.50;99.90;;;;;;5009585;28;20237;-83
2021/03/19 13:07:42;;;;;;;3.33;1.57;;;6.40;99.90;;;;;;5001390;28;20233;-83
2021/03/19 13:10:12;;;;;;;5.73;1.30;;;6.30;99.90;;;;;;5012092;28;20241;-84
2021/03/19 13:12:40;;;;;;;3.03;1.20;;;6.40;99.90;;;;;;5011263;28;20482;-84
2021/03/19 13:15:13;;;;;;;2.63;1.20;;;6.30;99.90;;;;;;5008964;28;20307;-83
2021/03/19 13:17:44;;;;;;;5.93;1.37;;;6.40;99.90;;;;;;5007536;28;20332;-83
2021/03/19 13:20:18;;;;;;;6.43;2.30;;;6.40;99.90;;;;;;4992291;28;20606;-83
2021/03/19 13:22:48;;;;;;;2.93;1.37;;;6.40;99.90;;;;;;5007685;28;20264;-83
2021/03/19 13:25:21;;;;;;;3.63;1.37;;;6.40;99.90;;;;;;4992622;28;20645;-83
2021/03/19 13:27:50;;;;;;;5.73;1.80;;;6.40;99.90;;;;;;4991773;28;20241;-82
2021/03/19 13:30:30;;;;;;;4.07;1.40;;;6.50;99.90;;;;;;5005745;28;20249;-83
2021/03/19 13:32:58;;;;;;;3.33;1.20;;;6.60;99.90;;;;;;5021216;28;20252;-84
2021/03/19 13:35:30;;;;;;;2.80;1.50;;;6.50;99.90;;;;;;5010641;28;20249;-83
2021/03/19 13:38:00;;;;;;;4.87;1.97;;;6.50;99.90;;;;;;5010833;28;20771;-83
2021/03/19 13:40:31;;;;;;;3.60;1.43;;;6.40;99.90;;;;;;5009892;28;20245;-84
2021/03/19 13:43:00;;;;;;;3.23;1.53;;;6.30;99.90;;;;;;5008549;28;20233;-83
2021/03/19 13:45:34;;;;;;;4.50;1.70;;;6.40;99.90;;;;;;5008094;28;20285;-83
2021/03/19 13:48:05;;;;;;;2.17;1.40;;;6.40;99.90;;;;;;5007493;28;20690;-83
2021/03/19 13:50:34;;;;;;;3.30;1.50;;;6.30;99.90;;;;;;4984150;28;20701;-81
2021/03/19 13:53:06;;;;;;;3.93;1.70;;;6.30;99.90;;;;;;4986449;28;20249;-81